메인 페이지
METAR-TAF:

METAR-TAF

공항 :

포스두이구아수, 파라나, 브라질

위도: 25-31S, 경도: 054-35W, 고도: 180m

현재 날씨관측

예보는 26분 전, 19:00시(UTC)에 발표되었습니다.
북동4kt
온도 24°C
습도 65%
기압 1013 hPa
시정 10km 이상
고도 2500ft 상공 구름 보통

METAR: SBFI 201900Z 04004KT 9999 SCT025 24/17 Q1013

시각: 16:26 (19:26 UTC)

예보

예보는 3 시간 56분 전, 15:30시(UTC)에 발표되었습니다.
예보 대상 시간: 20일 18시부터 21일 18시까지 (UTC)
8kt
시정 10km 이상
고도 2500ft 상공 구름 보통
고도 4000ft 상공 구름 조금, 타워링 적운.
전환 중
20일 20시부터 20일 22시까지 (UTC)
6kt
고도 4000ft 상공 구름 조금
전환 중
21일 02시부터 21일 04시까지 (UTC)
시정: 8000m
고도 1000ft 상공 구름 많음
일시적
21시부터 0시까지 (UTC)
시정: 4000m
고도 500ft 상공 구름 많음
고도 3000ft 상공 구름 조금, 적란운.
뇌우, 비, 박무
전환 중
21일 12시부터 21일 14시까지 (UTC)
북북동7kt
시정 10km 이상
고도 2000ft 상공 구름 보통
고도 4000ft 상공 구름 조금, 타워링 적운.

TAF: SBFI 201530Z 2018/2118 01008KT 9999 SCT025 FEW040TCU TN17/2106Z T X24/2118Z BECMG 2020/2022 10006KT FEW040 BECMG 2102/2104 8000 BKN010 TEMPO 210 6/2112 4000 TSRA BR BKN005 FEW030CB BECMG 2112/2114 03007KT 9999 NSW SCT020 FEW040TCU RMK PDW

4,000개 이상의 공항 관측 자료 및 예보 (METAR 및 TAF 보고).

지도상에서 검색 가능한 기상관측소가 노란 점과 빨간 점으로 표시되어 있습니다.

기상관측소 명을 보려면 표시 위로 마우스를 이동하세요.

날씨 관측과 예보를 보려면 클릭하세요.

지도 변경 : 확대하려면 엑스 표시가 있는 녹색 버튼, 축소하려면 빼기 표시가 있는 녹색 버튼, 다음 페이지의 지도를 보려면 녹색 화살표를 클릭하세요.


METAR-TAF: